createdAt,value
2022-11-23T00:00:34.221Z,99857.91
2022-11-23T00:05:36.858Z,99855.84
2022-11-23T00:10:39.365Z,99908.72
2022-11-23T00:15:42.046Z,99922.13
2022-11-23T00:20:45.234Z,99924.84
2022-11-23T00:25:47.860Z,99963.31
2022-11-23T00:30:51.078Z,99978.78
2022-11-23T00:36:14.110Z,99988.03
2022-11-23T00:41:19.330Z,100004.97
2022-11-23T00:46:27.274Z,99996.94
2022-11-23T00:51:32.290Z,100010.31
2022-11-23T00:56:35.615Z,100023.38
2022-11-23T01:01:38.537Z,100038.22
2022-11-23T01:06:41.346Z,100041.34
2022-11-23T01:11:44.255Z,100050.22
2022-11-23T01:16:47.014Z,100054.72
2022-11-23T01:21:50.142Z,100068.66
2022-11-23T01:26:54.076Z,100090.97
2022-11-23T01:31:56.786Z,100098.47
2022-11-23T01:36:59.741Z,100107.56
2022-11-23T01:42:07.333Z,100110.28
2022-11-23T01:47:11.142Z,100127.28
2022-11-23T01:52:16.877Z,100150.97
2022-11-23T01:57:46.017Z,100154.28
2022-11-23T02:02:54.521Z,100173.31
2022-11-23T02:07:57.615Z,100171.34
2022-11-23T02:13:06.181Z,100190.38
2022-11-23T02:18:32.249Z,100213.31
2022-11-23T02:23:37.861Z,100231.63
2022-11-23T02:28:56.130Z,100223.31
2022-11-23T02:33:58.980Z,100235.25
2022-11-23T02:39:06.130Z,100245.47
2022-11-23T02:44:33.741Z,100259.53
2022-11-23T02:49:36.555Z,100292.03
2022-11-23T02:54:39.292Z,100295.81
2022-11-23T02:59:41.929Z,100294.50
2022-11-23T03:04:44.733Z,100314.44
2022-11-23T03:09:47.725Z,100317.97
2022-11-23T03:14:50.657Z,100330.09
2022-11-23T03:19:54.395Z,100333.84
2022-11-23T03:24:59.233Z,100340.25
2022-11-23T03:30:02.045Z,100349.06
2022-11-23T03:35:09.630Z,100357.22
2022-11-23T03:40:23.283Z,100365.41
2022-11-23T03:45:47.971Z,100373.78
2022-11-23T03:50:50.664Z,100387.91
2022-11-23T03:55:55.843Z,100407.72
2022-11-23T04:01:00.304Z,100393.00
2022-11-23T04:06:04.003Z,100420.75
2022-11-23T04:11:09.376Z,100443.28
2022-11-23T04:16:15.365Z,100439.28
2022-11-23T04:21:18.148Z,100464.06
2022-11-23T04:26:21.014Z,100462.72
2022-11-23T04:31:24.243Z,100476.66
2022-11-23T04:36:35.934Z,100478.41
2022-11-23T04:41:39.284Z,100483.25
2022-11-23T04:46:42.297Z,100477.75
2022-11-23T04:51:48.577Z,100494.75
2022-11-23T04:56:54.595Z,100513.56
2022-11-23T05:01:57.368Z,100540.94
2022-11-23T05:07:29.130Z,100547.53
2022-11-23T05:12:36.896Z,100551.06
2022-11-23T05:17:39.875Z,100523.50
2022-11-23T05:22:48.538Z,100566.75
2022-11-23T05:27:55.922Z,100581.16
2022-11-23T05:33:03.564Z,100590.22
2022-11-23T05:38:07.066Z,100580.72
2022-11-23T05:43:10.663Z,100598.38
2022-11-23T05:48:13.568Z,100594.38
2022-11-23T05:53:28.956Z,100601.47
2022-11-23T05:58:40.253Z,100603.25
2022-11-23T06:03:44.771Z,100625.78
2022-11-23T06:08:49.249Z,100622.25
2022-11-23T06:13:54.879Z,100640.81
2022-11-23T06:18:57.716Z,100634.16
2022-11-23T06:24:00.454Z,100637.50
2022-11-23T06:29:06.218Z,100643.03
2022-11-23T06:34:09.893Z,100683.72
2022-11-23T06:39:13.700Z,100684.38
2022-11-23T06:44:16.811Z,100684.16
2022-11-23T06:49:20.899Z,100679.72
2022-11-23T06:54:40.398Z,100698.75
2022-11-23T06:59:45.962Z,100717.81
2022-11-23T07:04:52.765Z,100733.72
2022-11-23T07:09:57.633Z,100741.72
2022-11-23T07:15:15.684Z,100743.03
2022-11-23T07:20:20.279Z,100748.31
2022-11-23T07:25:23.134Z,100748.50
2022-11-23T07:30:29.380Z,100771.66
2022-11-23T07:35:35.088Z,100788.88
2022-11-23T07:40:38.923Z,100797.25
2022-11-23T07:45:47.392Z,100795.88
2022-11-23T07:50:55.622Z,100809.28
2022-11-23T07:56:01.401Z,100826.69
2022-11-23T08:01:04.246Z,100807.94
2022-11-23T08:06:10.488Z,100848.31
2022-11-23T08:11:15.160Z,100865.13
2022-11-23T08:16:18.978Z,100872.22
2022-11-23T08:21:22.576Z,100880.00
2022-11-23T08:26:25.455Z,100852.22
2022-11-23T08:31:28.284Z,100879.97
2022-11-23T08:36:31.039Z,100897.69
2022-11-23T08:41:34.330Z,100924.09
2022-11-23T08:46:37.474Z,100937.31
2022-11-23T08:51:40.163Z,100953.56
2022-11-23T08:56:43.222Z,100962.75
2022-11-23T09:01:46.223Z,100958.31
2022-11-23T09:06:48.871Z,100986.63
2022-11-23T09:11:51.749Z,100988.34
2022-11-23T09:16:55.289Z,101005.50
2022-11-23T09:21:58.475Z,101016.13
2022-11-23T09:27:01.393Z,101030.47
2022-11-23T09:32:04.209Z,101021.13
2022-11-23T09:37:06.901Z,101033.03
2022-11-23T09:42:15.539Z,101066.03
2022-11-23T09:47:45.798Z,101082.00
2022-11-23T09:52:49.694Z,101080.84
2022-11-23T09:57:58.297Z,101103.03
2022-11-23T10:03:01.668Z,101097.22
2022-11-23T10:08:23.113Z,101120.56
2022-11-23T10:13:31.733Z,101132.72
2022-11-23T10:18:55.896Z,101151.69
2022-11-23T10:24:25.830Z,101160.63
2022-11-23T10:29:35.779Z,101187.63
2022-11-23T10:35:09.230Z,101198.84
2022-11-23T10:40:25.245Z,101202.44
2022-11-23T10:45:29.646Z,101207.28
2022-11-23T10:50:37.827Z,101227.03
2022-11-23T10:55:50.117Z,101232.47
2022-11-23T11:01:01.498Z,101239.22
2022-11-23T11:06:09.626Z,101251.72
2022-11-23T11:11:24.008Z,101261.13
2022-11-23T11:16:32.892Z,101269.75
2022-11-23T11:21:39.136Z,101279.66
2022-11-23T11:26:50.787Z,101254.66
2022-11-23T11:32:13.573Z,101298.72
2022-11-23T11:37:38.252Z,101309.25
2022-11-23T11:42:44.005Z,101312.94
2022-11-23T11:47:51.307Z,101323.88
2022-11-23T11:52:59.798Z,101333.91
2022-11-23T11:58:11.692Z,101273.84
2022-11-23T12:03:48.621Z,101351.56
2022-11-23T12:09:28.680Z,101358.78
2022-11-23T12:14:32.041Z,101353.38
2022-11-23T12:19:43.443Z,101378.72
2022-11-23T12:25:11.922Z,101391.06
2022-11-23T12:30:37.523Z,101394.47
2022-11-23T12:35:57.725Z,101404.91
2022-11-23T12:41:24.871Z,101413.00
2022-11-23T12:46:55.195Z,101423.25
2022-11-23T12:52:06.826Z,101436.59
2022-11-23T12:57:31.244Z,101395.88
2022-11-23T13:03:06.356Z,101464.00
2022-11-23T13:08:38.211Z,101471.00
2022-11-23T13:14:08.514Z,101479.94
2022-11-23T13:19:26.315Z,101484.94
2022-11-23T13:24:37.350Z,101479.03
2022-11-23T13:29:47.761Z,101497.63
2022-11-23T13:34:51.587Z,101488.13
2022-11-23T13:39:57.909Z,101506.03
2022-11-23T13:45:22.258Z,101518.91
2022-11-23T13:50:24.984Z,101517.56
2022-11-23T13:55:40.131Z,101512.66
2022-11-23T14:00:50.160Z,101535.84
2022-11-23T14:06:00.588Z,101537.59
2022-11-23T14:11:11.347Z,101540.69
2022-11-23T14:16:17.906Z,101562.91
2022-11-23T14:21:26.038Z,101573.16
2022-11-23T14:27:45.208Z,101575.94
2022-11-23T14:33:11.246Z,101585.28
2022-11-23T14:38:39.615Z,101583.19
2022-11-23T14:43:43.199Z,101601.78
2022-11-23T14:48:47.045Z,101621.16
2022-11-23T14:53:55.085Z,101633.03
2022-11-23T14:59:02.516Z,101628.81
2022-11-23T15:04:11.194Z,101632.13
2022-11-23T15:09:41.663Z,101657.47
2022-11-23T15:14:44.416Z,101655.13
2022-11-23T15:20:12.264Z,101671.41
2022-11-23T15:25:16.703Z,101677.59
2022-11-23T15:30:32.356Z,101703.19
2022-11-23T15:35:37.029Z,101697.72
2022-11-23T15:40:42.594Z,101693.88
2022-11-23T15:45:45.677Z,101698.13
2022-11-23T15:50:59.732Z,101703.00
2022-11-23T15:56:05.639Z,101706.59
2022-11-23T16:01:11.492Z,101714.94
2022-11-23T16:06:14.137Z,101731.53
2022-11-23T16:11:33.732Z,101739.06
2022-11-23T16:16:38.346Z,101744.81
2022-11-23T16:21:45.504Z,101743.84
2022-11-23T16:26:48.232Z,101753.00
2022-11-23T16:32:03.264Z,101754.22
2022-11-23T16:37:05.958Z,101764.53
2022-11-23T16:42:14.273Z,101775.19
2022-11-23T16:47:26.907Z,101763.44
2022-11-23T16:52:29.614Z,101775.28
2022-11-23T16:57:34.356Z,101789.94
2022-11-23T17:02:37.020Z,101777.75
2022-11-23T17:07:39.901Z,101752.13
2022-11-23T17:12:53.763Z,101799.44
2022-11-23T17:17:56.447Z,101793.06
2022-11-23T17:23:01.504Z,101803.94
2022-11-23T17:28:05.739Z,101812.66
2022-11-23T17:33:11.187Z,101797.75
2022-11-23T17:38:16.234Z,101813.97
2022-11-23T17:43:19.332Z,101821.81
2022-11-23T17:48:22.224Z,101826.34
2022-11-23T17:53:25.705Z,101834.50
2022-11-23T17:58:28.849Z,101841.19
2022-11-23T18:03:31.556Z,101852.09
2022-11-23T18:08:34.318Z,101858.72
2022-11-23T18:13:37.580Z,101876.38
2022-11-23T18:18:40.220Z,101860.13
2022-11-23T18:23:43.202Z,101848.59
2022-11-23T18:28:46.331Z,101867.34
2022-11-23T18:33:48.976Z,101871.88
2022-11-23T18:38:51.608Z,101883.97
2022-11-23T18:43:54.874Z,101916.69
2022-11-23T18:48:57.839Z,101914.91
2022-11-23T18:54:00.633Z,101914.94
2022-11-23T18:59:03.662Z,101924.59
2022-11-23T19:04:06.864Z,101924.06
2022-11-23T19:09:11.977Z,101929.50
2022-11-23T19:14:14.834Z,101921.97
2022-11-23T19:19:18.872Z,101923.22
2022-11-23T19:24:21.497Z,101927.72
2022-11-23T19:29:25.297Z,101917.44
2022-11-23T19:34:28.003Z,101897.13
2022-11-23T19:39:30.969Z,101929.44
2022-11-23T19:44:33.873Z,101948.16
2022-11-23T19:49:36.567Z,101938.63
2022-11-23T19:54:39.227Z,101938.31
2022-11-23T19:59:44.629Z,101947.31
2022-11-23T20:04:48.134Z,101961.41
2022-11-23T20:09:50.790Z,101973.69
2022-11-23T20:14:53.413Z,101973.06
2022-11-23T20:19:56.137Z,101973.09
2022-11-23T20:25:00.381Z,101947.22
2022-11-23T20:30:03.312Z,101954.44
2022-11-23T20:35:06.771Z,101989.50
2022-11-23T20:40:09.984Z,101984.53
2022-11-23T20:45:12.783Z,101980.16
2022-11-23T20:50:15.755Z,101981.75
2022-11-23T20:55:23.733Z,101989.00
2022-11-23T21:00:26.640Z,101992.34
2022-11-23T21:05:29.493Z,101972.53
2022-11-23T21:10:50.382Z,101984.72
2022-11-23T21:15:53.042Z,101990.63
2022-11-23T21:20:55.815Z,101990.13
2022-11-23T21:26:06.039Z,101993.75
2022-11-23T21:31:09.810Z,101999.06
2022-11-23T21:36:12.831Z,101958.94
2022-11-23T21:41:18.284Z,102016.53
2022-11-23T21:46:21.953Z,102022.25
2022-11-23T21:51:27.416Z,102021.09
2022-11-23T21:56:30.307Z,102015.44
2022-11-23T22:01:34.909Z,102027.06
2022-11-23T22:06:38.906Z,102023.69
2022-11-23T22:11:43.536Z,102033.94
2022-11-23T22:16:47.875Z,102039.69
2022-11-23T22:21:50.572Z,102035.81
2022-11-23T22:26:53.335Z,102040.72
2022-11-23T22:31:56.077Z,102007.78
2022-11-23T22:36:58.914Z,102024.97
2022-11-23T22:42:01.677Z,102043.03
2022-11-23T22:47:04.482Z,102043.97
2022-11-23T22:52:07.175Z,102042.16
2022-11-23T22:57:10.143Z,102047.28
2022-11-23T23:02:12.891Z,102027.22
2022-11-23T23:07:15.721Z,102044.66
2022-11-23T23:12:18.465Z,102048.53
2022-11-23T23:17:21.183Z,102016.41
2022-11-23T23:22:23.953Z,102044.06
2022-11-23T23:27:26.714Z,102049.44
2022-11-23T23:32:29.478Z,102038.66
2022-11-23T23:37:32.580Z,102044.00
2022-11-23T23:42:35.487Z,102038.56
2022-11-23T23:47:38.299Z,102040.69
2022-11-23T23:52:41.100Z,101989.97
2022-11-23T23:57:43.842Z,102036.13
